Time;durP1;ratioP1;P1;durP2;ratioP2;P2;SDS_P1;SDS_P2;PMS_P1;PMS_P2;Temp;Humidity;BMP_temperature;BMP_pressure;BME280_temperature;BME280_humidity;BME280_pressure;Samples;Min_cycle;Max_cycle;Signal;HPM_P1;HPM_P2
2021/03/01 09:11:49;;;;;;;51.27;28.37;;;;;;;4.76;71.71;100701.78;124288;1105;104169;-66
2021/03/01 09:14:17;;;;;;;48.63;25.73;;;;;;;4.76;71.40;100702.63;124181;1105;104287;-67
2021/03/01 09:16:55;;;;;;;49.87;26.00;;;;;;;4.76;71.51;100710.55;124266;1105;104220;-67
2021/03/01 09:19:23;;;;;;;47.33;25.33;;;;;;;4.80;71.50;100711.36;124197;1105;104170;-69
2021/03/01 09:21:58;;;;;;;49.77;25.30;;;;;;;4.83;71.55;100713.05;124225;1105;104645;-67
2021/03/01 09:24:30;;;;;;;52.57;26.93;;;;;;;4.86;71.80;100712.98;123904;1105;104277;-66
2021/03/01 09:26:57;;;;;;;51.97;25.73;;;;;;;4.89;71.87;100715.55;123930;1106;104726;-66
2021/03/01 09:29:24;;;;;;;47.23;24.63;;;;;;;4.93;71.58;100722.48;124109;1105;104213;-66
2021/03/01 09:31:54;;;;;;;45.57;25.23;;;;;;;4.93;71.74;100733.04;124089;1105;104271;-67
2021/03/01 09:34:27;;;;;;;45.87;24.73;;;;;;;4.96;71.65;100730.33;124048;1105;104226;-67
2021/03/01 09:37:11;;;;;;;48.80;24.57;;;;;;;4.92;71.57;100723.39;124118;1105;104322;-68
2021/03/01 09:39:43;;;;;;;44.93;24.90;;;;;;;4.91;71.42;100726.93;124133;1105;104197;-67
2021/03/01 09:42:11;;;;;;;48.57;26.10;;;;;;;4.91;71.75;100721.66;124273;1105;104252;-65
2021/03/01 09:44:39;;;;;;;48.07;25.70;;;;;;;4.94;71.50;100723.34;124138;1105;104303;-66
2021/03/01 09:47:08;;;;;;;43.93;23.57;;;;;;;4.97;71.41;100725.91;124232;1105;104194;-68
2021/03/01 09:49:40;;;;;;;44.23;22.30;;;;;;;4.97;71.63;100733.82;124257;1105;104249;-68
2021/03/01 09:52:09;;;;;;;41.13;23.07;;;;;;;4.91;71.70;100727.78;124191;1105;104192;-66
2021/03/01 09:54:39;;;;;;;38.53;21.33;;;;;;;4.91;71.34;100726.93;124197;1106;104207;-68
2021/03/01 09:57:08;;;;;;;41.07;23.33;;;;;;;4.93;71.58;100733.04;124182;1105;104848;-67
2021/03/01 09:59:41;;;;;;;43.43;23.40;;;;;;;4.98;71.59;100739.08;124001;1105;104261;-66
2021/03/01 10:02:11;;;;;;;42.80;23.27;;;;;;;5.02;71.25;100746.02;123858;1105;104306;-66
2021/03/01 10:04:39;;;;;;;45.55;23.80;;;;;;;5.06;71.45;100734.50;124041;1105;104300;-66
2021/03/01 10:07:20;;;;;;;43.17;22.33;;;;;;;5.13;71.74;100732.58;124027;1105;104316;-67
2021/03/01 10:09:48;;;;;;;40.70;22.97;;;;;;;5.23;71.69;100735.00;124076;1105;104238;-67
2021/03/01 10:12:15;;;;;;;47.43;23.83;;;;;;;5.29;71.54;100729.59;124170;1105;104623;-66
2021/03/01 10:14:43;;;;;;;44.03;23.47;;;;;;;5.39;71.80;100732.86;124250;1105;104313;-66
2021/03/01 10:17:20;;;;;;;40.70;22.57;;;;;;;5.42;71.52;100741.56;124271;1105;104268;-68
2021/03/01 10:19:49;;;;;;;40.77;22.57;;;;;;;5.44;71.52;100745.02;124200;1105;104210;-67
2021/03/01 10:22:16;;;;;;;40.97;21.77;;;;;;;5.44;71.51;100754.73;124115;1105;104383;-68
2021/03/01 10:24:49;;;;;;;38.17;21.47;;;;;;;5.43;71.27;100755.64;124008;1105;104233;-68
2021/03/01 10:27:16;;;;;;;40.50;21.93;;;;;;;5.41;71.33;100753.02;125939;1105;103310;-67
2021/03/01 10:29:53;;;;;;;40.77;22.17;;;;;;;5.41;71.28;100745.09;125356;1105;104162;-68
2021/03/01 10:32:25;;;;;;;39.47;22.43;;;;;;;5.44;71.48;100747.66;124027;1105;104262;-68
2021/03/01 10:34:54;;;;;;;43.60;22.67;;;;;;;5.49;71.37;100744.93;124963;1105;104186;-67
2021/03/01 10:37:23;;;;;;;37.73;21.87;;;;;;;5.53;71.31;100743.92;124010;1105;104269;-69
2021/03/01 10:39:51;;;;;;;42.63;23.73;;;;;;;5.56;71.42;100740.36;125137;1104;104265;-69
2021/03/01 10:42:21;;;;;;;39.60;21.63;;;;;;;5.59;71.32;100740.28;124144;1105;104200;-67
2021/03/01 10:44:51;;;;;;;41.27;24.00;;;;;;;5.64;71.37;100746.31;124108;1105;104159;-68
2021/03/01 10:47:18;;;;;;;37.07;21.23;;;;;;;5.66;71.30;100749.78;124119;1105;104373;-67
2021/03/01 10:49:47;;;;;;;37.50;20.20;;;;;;;5.61;71.19;100749.03;124134;1105;104188;-67
2021/03/01 10:52:16;;;;;;;38.43;21.47;;;;;;;5.53;71.20;100751.84;124250;1105;104258;-68
2021/03/01 10:54:49;;;;;;;41.37;23.40;;;;;;;5.46;71.20;100747.64;124145;1105;104254;-70
2021/03/01 10:57:16;;;;;;;39.40;22.47;;;;;;;5.41;71.10;100754.80;124257;1105;104249;-67
2021/03/01 10:59:47;;;;;;;38.27;21.93;;;;;;;5.35;71.21;100748.77;124211;1105;104268;-67
2021/03/01 11:02:14;;;;;;;40.33;24.77;;;;;;;5.37;71.58;100753.98;124183;1105;104238;-68
2021/03/01 11:04:48;;;;;;;43.30;23.93;;;;;;;5.40;71.25;100764.48;124193;1105;104220;-70
2021/03/01 11:07:18;;;;;;;43.20;24.63;;;;;;;5.35;71.07;100764.59;124125;1105;104196;-68
2021/03/01 11:09:48;;;;;;;48.07;26.00;;;;;;;5.35;71.30;100763.72;124154;1105;104181;-68
2021/03/01 11:12:15;;;;;;;50.78;27.15;;;;;;;5.38;71.30;100773.34;124170;1105;104217;-67
2021/03/01 11:14:42;;;;;;;41.83;23.57;;;;;;;5.31;71.13;100775.24;124130;1105;104256;-67
2021/03/01 11:17:11;;;;;;;40.60;22.47;;;;;;;5.23;71.22;100770.16;124142;1106;104264;-67
2021/03/01 11:19:39;;;;;;;41.10;21.47;;;;;;;5.24;71.03;100771.04;124169;1105;104188;-67
2021/03/01 11:22:06;;;;;;;41.57;23.77;;;;;;;5.25;70.96;100770.98;124197;1105;104204;-67
2021/03/01 11:24:33;;;;;;;41.50;22.73;;;;;;;5.28;71.06;100770.92;124188;1105;104181;-67
2021/03/01 11:27:01;;;;;;;40.90;24.23;;;;;;;5.28;70.98;100772.70;124083;1106;104258;-68
2021/03/01 11:29:28;;;;;;;40.80;24.35;;;;;;;5.28;71.14;100776.20;124106;1105;104192;-68
2021/03/01 11:31:55;;;;;;;38.60;22.00;;;;;;;5.31;70.98;100784.05;124052;1105;104265;-67
2021/03/01 11:34:22;;;;;;;41.70;22.70;;;;;;;5.31;71.11;100777.88;124222;1104;104278;-68
2021/03/01 11:36:49;;;;;;;39.38;21.75;;;;;;;5.29;71.18;100780.57;124186;1105;104258;-68
2021/03/01 11:39:16;;;;;;;47.93;25.73;;;;;;;5.31;71.02;100778.77;124101;1105;104213;-68
2021/03/01 11:41:43;;;;;;;78.12;45.45;;;;;;;5.35;71.32;100783.07;124188;1105;104246;-67
2021/03/01 11:44:10;;;;;;;44.80;26.17;;;;;;;5.37;71.37;100775.10;124149;1105;104320;-69
2021/03/01 11:46:37;;;;;;;46.00;25.30;;;;;;;5.36;70.98;100776.89;124204;1105;104344;-69
2021/03/01 11:49:05;;;;;;;43.00;24.40;;;;;;;5.37;71.17;100775.10;124189;1105;104191;-66
2021/03/01 11:51:33;;;;;;;42.35;24.15;;;;;;;5.39;70.99;100773.30;124137;1105;104249;-67
2021/03/01 11:54:00;;;;;;;41.33;23.33;;;;;;;5.42;71.17;100773.22;124248;1105;104245;-67
2021/03/01 11:56:27;;;;;;;42.97;25.17;;;;;;;5.43;70.98;100772.32;124118;1105;104271;-70
2021/03/01 11:58:54;;;;;;;40.57;23.67;;;;;;;5.42;70.96;100778.50;124094;1105;104408;-68
2021/03/01 12:01:21;;;;;;;43.90;23.93;;;;;;;5.33;70.92;100774.32;124083;1105;104281;-70
2021/03/01 12:03:48;;;;;;;37.03;20.12;;;;;;;5.21;70.65;100775.48;124109;1105;104375;-68
2021/03/01 12:06:16;;;;;;;38.40;21.93;;;;;;;5.12;70.66;100775.69;124172;1105;104283;-69
2021/03/01 12:08:43;;;;;;;36.07;21.30;;;;;;;5.06;70.79;100774.06;124191;1105;104383;-70
2021/03/01 12:11:10;;;;;;;39.92;22.00;;;;;;;5.07;70.95;100780.19;124253;1105;104262;-69
2021/03/01 12:13:37;;;;;;;38.30;22.10;;;;;;;5.07;70.79;100772.28;124182;1105;104326;-67
2021/03/01 12:16:05;;;;;;;44.10;21.63;;;;;;;5.10;70.68;100774.84;124232;1105;104271;-67
2021/03/01 12:18:33;;;;;;;42.70;22.77;;;;;;;5.13;70.94;100772.14;124267;1105;104169;-67
2021/03/01 12:21:00;;;;;;;40.30;23.23;;;;;;;5.16;71.09;100777.35;124200;1105;104313;-67
2021/03/01 12:23:27;;;;;;;37.03;20.12;;;;;;;5.13;70.76;100777.42;124200;1105;104211;-67
2021/03/01 12:25:54;;;;;;;39.53;20.80;;;;;;;5.15;70.83;100777.38;124306;1105;104184;-66
2021/03/01 12:28:26;;;;;;;40.10;21.73;;;;;;;5.15;70.95;100780.01;124221;1105;104271;-67
2021/03/01 12:30:53;;;;;;;40.48;21.07;;;;;;;5.14;70.88;100776.52;124174;1105;104287;-68
2021/03/01 12:33:40;;;;;;;42.97;22.53;;;;;;;5.18;70.74;100769.39;124043;1106;104769;-68
2021/03/01 12:36:08;;;;;;;41.85;22.60;;;;;;;5.23;70.80;100772.80;124110;1105;104255;-69
2021/03/01 12:38:37;;;;;;;40.70;22.80;;;;;;;5.21;70.63;100769.32;124273;1105;104278;-68
2021/03/01 12:41:05;;;;;;;40.27;21.17;;;;;;;5.17;70.95;100765.90;124082;1105;104273;-66
2021/03/01 12:43:33;;;;;;;41.77;22.33;;;;;;;5.23;70.81;100772.80;124214;1106;104278;-66
2021/03/01 12:46:01;;;;;;;34.40;19.30;;;;;;;5.23;70.81;100772.80;124225;1105;104467;-67
2021/03/01 12:48:28;;;;;;;34.80;19.00;;;;;;;5.17;70.74;100770.30;124144;1104;104175;-67
2021/03/01 12:50:56;;;;;;;36.97;19.50;;;;;;;5.20;70.87;100772.86;123937;1106;104178;-67
2021/03/01 12:53:22;;;;;;;34.87;18.47;;;;;;;5.25;70.86;100773.63;124115;1106;104245;-66
2021/03/01 12:55:50;;;;;;;40.65;20.23;;;;;;;5.27;70.87;100777.09;124233;1105;104249;-68
2021/03/01 12:58:17;;;;;;;41.40;21.25;;;;;;;5.29;71.24;100775.30;124251;1105;104182;-67
2021/03/01 13:00:44;;;;;;;38.23;20.70;;;;;;;5.31;70.72;100770.85;124164;1105;104258;-66
2021/03/01 13:03:34;;;;;;;41.40;21.07;;;;;;;5.34;70.75;100776.05;124256;1105;104278;-67
2021/03/01 13:06:04;;;;;;;37.20;20.23;;;;;;;5.35;70.79;100768.99;124292;1105;104278;-67
2021/03/01 13:08:32;;;;;;;40.10;20.60;;;;;;;5.39;70.99;100764.53;124218;1105;104165;-68
2021/03/01 13:11:02;;;;;;;39.05;20.80;;;;;;;5.36;70.94;100761.06;124233;1105;104153;-68
2021/03/01 13:13:30;;;;;;;41.67;20.90;;;;;;;5.34;70.72;100765.50;124218;1105;104184;-67
2021/03/01 13:16:00;;;;;;;35.63;19.50;;;;;;;5.27;70.45;100769.19;124227;1105;104217;-67
2021/03/01 13:18:28;;;;;;;40.77;20.93;;;;;;;5.20;70.44;100757.03;124202;1105;104217;-67
2021/03/01 13:20:58;;;;;;;40.80;21.07;;;;;;;5.12;70.50;100761.61;124139;1105;104269;-67
2021/03/01 13:23:27;;;;;;;38.47;20.73;;;;;;;5.06;70.64;100757.36;124241;1105;104194;-68
2021/03/01 13:25:56;;;;;;;38.80;20.47;;;;;;;5.03;70.53;100757.42;124210;1105;104188;-68
2021/03/01 13:28:27;;;;;;;40.20;21.43;;;;;;;5.00;70.62;100750.46;124209;1105;104287;-67
2021/03/01 13:30:55;;;;;;;41.97;23.07;;;;;;;5.04;70.62;100760.05;124152;1105;104350;-65
2021/03/01 13:33:24;;;;;;;40.00;22.55;;;;;;;5.10;70.85;100750.23;124232;1105;104178;-67
2021/03/01 13:35:53;;;;;;;44.30;24.87;;;;;;;5.16;70.86;100753.61;124018;1105;105138;-67
2021/03/01 13:38:22;;;;;;;45.47;24.03;;;;;;;5.20;70.62;100757.03;124239;1105;104265;-67
2021/03/01 13:41:12;;;;;;;42.43;21.93;;;;;;;5.20;70.46;100757.92;124163;1105;104500;-67
2021/03/01 13:43:39;;;;;;;37.47;21.63;;;;;;;5.24;70.62;100765.77;124259;1105;104188;-67
2021/03/01 13:46:06;;;;;;;38.35;19.67;;;;;;;5.25;70.48;100755.16;124223;1105;104341;-69
2021/03/01 13:48:34;;;;;;;41.07;22.97;;;;;;;5.20;70.40;100751.76;124199;1105;104472;-67
2021/03/01 13:51:02;;;;;;;48.10;23.70;;;;;;;5.16;70.66;100761.52;124187;1105;104217;-67
2021/03/01 13:53:32;;;;;;;43.90;23.87;;;;;;;5.16;70.58;100758.89;123985;1105;104268;-68
2021/03/01 13:56:00;;;;;;;42.90;23.57;;;;;;;5.18;70.49;100766.75;124270;1105;104223;-67
2021/03/01 13:58:29;;;;;;;41.83;22.17;;;;;;;5.21;70.42;100766.68;124229;1105;104267;-68
2021/03/01 14:00:56;;;;;;;43.00;23.53;;;;;;;5.16;70.33;100774.72;124189;1105;104265;-67
2021/03/01 14:03:24;;;;;;;41.47;22.90;;;;;;;5.12;70.45;100764.25;124224;1105;104213;-66
2021/03/01 14:05:54;;;;;;;43.77;23.67;;;;;;;5.13;70.77;100768.63;124202;1105;104383;-67
2021/03/01 14:08:21;;;;;;;46.33;24.33;;;;;;;5.12;70.43;100766.89;124137;1105;104230;-67
2021/03/01 14:10:48;;;;;;;46.80;25.00;;;;;;;5.06;70.51;100766.16;124179;1105;104230;-66
2021/03/01 14:13:15;;;;;;;42.63;24.17;;;;;;;5.03;70.43;100765.34;124148;1105;104306;-66
2021/03/01 14:15:42;;;;;;;47.97;26.27;;;;;;;5.01;70.39;100767.14;124169;1105;104182;-68
2021/03/01 14:18:10;;;;;;;48.03;26.53;;;;;;;5.01;70.71;100769.77;124174;1105;104270;-68
2021/03/01 14:20:37;;;;;;;51.35;29.40;;;;;;;4.99;70.15;100772.46;124130;1105;104264;-67
2021/03/01 14:23:07;;;;;;;51.63;27.67;;;;;;;5.01;70.62;100775.05;124253;1105;104172;-67
2021/03/01 14:25:34;;;;;;;50.00;26.63;;;;;;;5.04;70.51;100767.08;124330;1105;104312;-66
2021/03/01 14:28:02;;;;;;;55.63;28.53;;;;;;;5.10;70.74;100772.21;124231;1106;104261;-67
2021/03/01 14:30:32;;;;;;;53.63;28.80;;;;;;;5.13;70.36;100769.51;124239;1105;104188;-68
2021/03/01 14:33:17;;;;;;;47.00;24.90;;;;;;;5.13;70.39;100771.27;124202;1105;104258;-68
2021/03/01 14:35:46;;;;;;;47.50;26.30;;;;;;;5.14;70.36;100767.72;124245;1105;104271;-68
2021/03/01 14:38:16;;;;;;;44.00;24.50;;;;;;;5.12;70.28;100759.86;124231;1105;104195;-68
2021/03/01 14:40:43;;;;;;;42.63;24.00;;;;;;;5.12;70.64;100761.61;124192;1105;104248;-69
2021/03/01 14:43:31;;;;;;;44.17;24.77;;;;;;;5.07;70.26;100759.09;124000;1105;104644;-66
2021/03/01 14:45:59;;;;;;;42.83;22.63;;;;;;;5.08;70.47;100765.25;123933;1105;104162;-66
2021/03/01 14:48:27;;;;;;;41.43;22.17;;;;;;;5.09;70.43;100762.56;124197;1105;104168;-69
2021/03/01 14:50:56;;;;;;;45.43;22.27;;;;;;;5.07;70.58;100756.45;124142;1105;104463;-67
2021/03/01 14:53:25;;;;;;;42.03;22.73;;;;;;;5.08;70.31;100763.47;124129;1105;104192;-68
2021/03/01 14:55:52;;;;;;;40.53;21.70;;;;;;;5.08;70.46;100755.55;124197;1105;104251;-65
2021/03/01 14:58:20;;;;;;;39.33;21.87;;;;;;;5.06;70.25;100752.97;124128;1105;104264;-67
2021/03/01 15:00:47;;;;;;;43.05;21.60;;;;;;;5.04;70.42;100754.77;124171;1105;104223;-66
2021/03/01 15:03:15;;;;;;;43.40;22.83;;;;;;;5.01;70.19;100752.20;123995;1105;104607;-66
2021/03/01 15:05:49;;;;;;;42.55;23.40;;;;;;;5.02;70.65;100758.33;124153;1105;104264;-66
2021/03/01 15:08:19;;;;;;;44.07;24.27;;;;;;;5.06;70.62;100759.99;124185;1105;104246;-66
2021/03/01 15:10:46;;;;;;;45.30;26.07;;;;;;;5.10;70.45;100752.86;124224;1105;104160;-67
2021/03/01 15:13:29;;;;;;;43.27;24.43;;;;;;;5.14;70.29;100751.89;124168;1105;104255;-66
2021/03/01 15:15:57;;;;;;;47.20;25.53;;;;;;;5.15;70.51;100749.23;124206;1105;104310;-67
2021/03/01 15:18:26;;;;;;;45.80;25.30;;;;;;;5.13;70.56;100743.13;123971;1105;104309;-66
2021/03/01 15:20:55;;;;;;;47.73;26.27;;;;;;;5.08;70.30;100745.00;124268;1105;104280;-66
2021/03/01 15:23:22;;;;;;;48.33;27.30;;;;;;;5.08;70.31;100739.73;124106;1105;104257;-67
2021/03/01 15:25:53;;;;;;;51.00;27.90;;;;;;;5.07;70.37;100743.27;124121;1105;104260;-67
2021/03/01 15:28:30;;;;;;;50.80;28.40;;;;;;;5.12;70.34;100746.67;126222;1105;103101;-68
2021/03/01 15:30:58;;;;;;;55.80;27.73;;;;;;;5.14;70.52;100741.34;126213;1104;102231;-68
2021/03/01 15:33:27;;;;;;;51.93;27.83;;;;;;;5.20;70.74;100743.84;125715;1105;101922;-68
2021/03/01 15:36:08;;;;;;;58.33;31.87;;;;;;;5.24;70.24;100729.67;126237;1104;102081;-68
2021/03/01 15:38:36;;;;;;;59.93;31.83;;;;;;;5.27;70.13;100731.39;124745;1105;104184;-66
2021/03/01 15:41:04;;;;;;;51.97;28.73;;;;;;;5.26;70.43;100729.66;124300;1105;104427;-66
2021/03/01 15:43:32;;;;;;;58.90;30.00;;;;;;;5.25;70.30;100735.84;124224;1105;104213;-67
2021/03/01 15:45:59;;;;;;;51.70;29.27;;;;;;;5.26;70.26;100732.30;124219;1105;104220;-67
2021/03/01 15:48:26;;;;;;;57.07;27.77;;;;;;;5.27;70.44;100739.31;124128;1105;104258;-67
2021/03/01 15:50:53;;;;;;;50.03;25.90;;;;;;;5.22;70.12;100736.76;124164;1105;104188;-70
2021/03/01 15:53:20;;;;;;;54.40;28.67;;;;;;;5.16;70.07;100734.27;124058;1105;104300;-67
2021/03/01 15:55:47;;;;;;;56.77;29.87;;;;;;;5.16;70.09;100742.17;124146;1106;104361;-67
2021/03/01 15:58:15;;;;;;;64.90;33.10;;;;;;;5.14;70.21;100746.62;124173;1105;104345;-66
2021/03/01 16:00:42;;;;;;;64.17;31.97;;;;;;;5.11;70.12;100741.41;124100;1105;104189;-67
2021/03/01 16:03:30;;;;;;;63.40;30.95;;;;;;;5.07;70.27;100740.62;124213;1104;104220;-67
2021/03/01 16:05:57;;;;;;;66.20;32.40;;;;;;;5.05;70.09;100745.06;124214;1105;104364;-68
2021/03/01 16:08:25;;;;;;;64.30;30.00;;;;;;;5.06;70.00;100752.08;124147;1105;104184;-67
2021/03/01 16:10:52;;;;;;;57.77;29.30;;;;;;;5.09;70.31;100746.73;124170;1105;104188;-68
2021/03/01 16:13:20;;;;;;;53.23;29.00;;;;;;;5.07;70.36;100748.55;124166;1105;104185;-67
2021/03/01 16:15:48;;;;;;;55.13;28.60;;;;;;;5.02;70.41;100755.69;124129;1105;104268;-67
2021/03/01 16:18:20;;;;;;;57.30;28.93;;;;;;;5.00;70.18;100753.09;124184;1105;104262;-68
2021/03/01 16:20:48;;;;;;;56.87;28.97;;;;;;;5.00;70.43;100750.46;124107;1105;104169;-67
2021/03/01 16:23:16;;;;;;;56.93;29.80;;;;;;;4.97;70.24;100754.92;124213;1105;104181;-67
2021/03/01 16:25:44;;;;;;;59.63;31.80;;;;;;;4.94;70.13;100749.71;124033;1105;104280;-67
2021/03/01 16:28:12;;;;;;;56.63;29.17;;;;;;;4.92;70.34;100753.25;124184;1105;104163;-66
2021/03/01 16:30:39;;;;;;;62.10;29.75;;;;;;;4.94;70.18;100753.23;124082;1105;104270;-68
2021/03/01 16:33:07;;;;;;;62.90;31.73;;;;;;;4.94;70.23;100760.26;124139;1105;104242;-67
2021/03/01 16:35:35;;;;;;;67.70;34.37;;;;;;;4.95;70.36;100759.36;124173;1105;104156;-68
2021/03/01 16:38:02;;;;;;;70.70;37.93;;;;;;;4.99;70.19;100766.30;124157;1105;104258;-67
2021/03/01 16:40:31;;;;;;;66.00;36.20;;;;;;;5.00;70.25;100760.13;124247;1105;104380;-67
2021/03/01 16:43:00;;;;;;;64.63;32.47;;;;;;;5.01;70.33;100761.86;124210;1105;104246;-67
2021/03/01 16:45:28;;;;;;;64.73;32.87;;;;;;;5.04;70.48;100765.32;124120;1105;104299;-67
2021/03/01 16:47:58;;;;;;;60.43;32.43;;;;;;;5.05;70.35;100766.17;124160;1106;104329;-67
2021/03/01 16:50:26;;;;;;;60.77;31.73;;;;;;;5.00;70.24;100775.95;124205;1105;104267;-67
2021/03/01 16:52:54;;;;;;;53.57;27.30;;;;;;;4.96;70.32;100769.89;124187;1105;104251;-66
2021/03/01 16:55:24;;;;;;;56.90;30.40;;;;;;;4.94;69.99;100768.17;124181;1105;104590;-67
2021/03/01 16:57:51;;;;;;;59.87;29.63;;;;;;;4.95;70.21;100775.18;124068;1105;104670;-66
2021/03/01 17:00:21;;;;;;;62.20;32.20;;;;;;;4.95;70.13;100762.00;124223;1105;104220;-67
2021/03/01 17:02:48;;;;;;;65.67;33.00;;;;;;;4.92;70.09;100762.95;124158;1105;104261;-67
2021/03/01 17:05:17;;;;;;;71.25;35.10;;;;;;;4.92;70.24;100770.86;124231;1105;104261;-67
2021/03/01 17:07:47;;;;;;;66.47;34.20;;;;;;;4.88;70.05;100779.73;124190;1105;104302;-68
2021/03/01 17:10:18;;;;;;;72.10;36.10;;;;;;;4.83;70.09;100777.20;124045;1105;104213;-66
2021/03/01 17:13:09;;;;;;;73.77;37.00;;;;;;;4.81;70.22;100773.73;124860;1105;104214;-67
2021/03/01 17:15:38;;;;;;;76.35;38.50;;;;;;;4.84;70.10;100773.67;124057;1106;104213;-67
2021/03/01 17:18:12;;;;;;;74.53;40.67;;;;;;;4.90;70.09;100775.30;124124;1105;104220;-67
2021/03/01 17:20:43;;;;;;;84.05;44.05;;;;;;;4.91;70.06;100780.52;124107;1105;104248;-68
2021/03/01 17:23:13;;;;;;;81.57;43.27;;;;;;;4.89;70.03;100771.77;124175;1105;104165;-66
2021/03/01 17:25:44;;;;;;;77.27;37.80;;;;;;;4.88;70.43;100770.06;124232;1105;104648;-66
2021/03/01 17:28:12;;;;;;;70.37;36.57;;;;;;;4.89;70.19;100770.92;124201;1105;104184;-65
2021/03/01 17:30:42;;;;;;;74.80;38.27;;;;;;;4.90;70.25;100762.96;124189;1105;104163;-69
2021/03/01 17:33:12;;;;;;;79.40;42.53;;;;;;;4.90;70.12;100765.59;124212;1105;104357;-67
2021/03/01 17:35:39;;;;;;;82.57;43.10;;;;;;;4.89;70.10;100763.86;124125;1105;104259;-66
2021/03/01 17:38:09;;;;;;;89.83;46.70;;;;;;;4.91;70.19;100754.16;124212;1105;104284;-66
2021/03/01 17:40:53;;;;;;;85.37;43.73;;;;;;;4.94;70.43;100758.50;124150;1105;104251;-67
2021/03/01 17:43:20;;;;;;;77.83;39.20;;;;;;;4.96;70.10;100756.70;124139;1105;104261;-69
2021/03/01 17:45:47;;;;;;;75.47;38.15;;;;;;;4.96;70.02;100756.70;124197;1106;104344;-67
2021/03/01 17:48:23;;;;;;;71.90;34.83;;;;;;;4.97;70.13;100754.92;124199;1105;104165;-66
2021/03/01 17:51:02;;;;;;;70.10;36.07;;;;;;;4.96;70.29;100754.06;124188;1105;104296;-66
2021/03/01 17:53:32;;;;;;;72.77;38.27;;;;;;;4.91;69.93;100759.42;124153;1105;104248;-67
2021/03/01 17:56:27;;;;;;;66.73;33.97;;;;;;;4.88;70.32;100758.64;124137;1105;104258;-66
2021/03/01 17:59:03;;;;;;;65.47;34.27;;;;;;;4.90;70.17;100752.41;124169;1105;104328;-70
2021/03/01 18:01:37;;;;;;;67.73;35.30;;;;;;;4.91;70.27;100758.58;124275;1106;104187;-65
2021/03/01 18:04:07;;;;;;;64.70;34.37;;;;;;;4.90;70.18;100762.96;124184;1105;104258;-65
2021/03/01 18:06:39;;;;;;;67.13;36.03;;;;;;;4.91;70.09;100761.21;124281;1105;104178;-67
2021/03/01 18:09:11;;;;;;;70.57;36.47;;;;;;;4.91;70.13;100756.79;124252;1105;104181;-67
2021/03/01 18:11:45;;;;;;;71.97;37.17;;;;;;;4.90;70.18;100759.47;124274;1105;104421;-68
2021/03/01 18:14:13;;;;;;;76.03;39.67;;;;;;;4.91;70.28;100750.66;124026;1105;104162;-66
2021/03/01 18:16:44;;;;;;;73.70;39.50;;;;;;;4.89;70.10;100758.59;124217;1105;104188;-66
2021/03/01 18:19:39;;;;;;;71.23;38.97;;;;;;;4.88;70.16;100753.36;124178;1105;104239;-66
2021/03/01 18:22:07;;;;;;;71.20;39.03;;;;;;;4.88;70.10;100748.98;124184;1105;104246;-66
2021/03/01 18:24:41;;;;;;;75.73;39.47;;;;;;;4.90;70.40;100749.78;124187;1105;104412;-67
2021/03/01 18:27:10;;;;;;;65.05;34.33;;;;;;;4.91;70.22;100751.52;124166;1105;104165;-68
2021/03/01 18:29:41;;;;;;;88.33;42.47;;;;;;;4.91;70.07;100748.87;124218;1105;104390;-68
2021/03/01 18:32:11;;;;;;;75.97;40.63;;;;;;;4.91;70.29;100748.87;124179;1105;104191;-69
2021/03/01 18:34:56;;;;;;;81.30;41.93;;;;;;;4.92;70.38;100755.03;124193;1105;104514;-67
2021/03/01 18:37:28;;;;;;;73.03;38.33;;;;;;;4.94;70.17;100749.71;124145;1105;104262;-69
2021/03/01 18:40:10;;;;;;;70.97;39.20;;;;;;;4.94;70.22;100752.34;124161;1105;104159;-69
2021/03/01 18:42:46;;;;;;;69.65;35.70;;;;;;;4.89;70.13;100748.04;124119;1105;104185;-69
2021/03/01 18:45:16;;;;;;;68.10;35.93;;;;;;;4.87;69.94;100743.72;124073;1105;104213;-69
2021/03/01 18:47:45;;;;;;;78.23;37.30;;;;;;;4.84;70.03;100743.78;124224;1105;104206;-68
2021/03/01 18:50:20;;;;;;;65.87;34.70;;;;;;;4.87;69.92;100749.88;124254;1106;104168;-72
2021/03/01 18:52:48;;;;;;;65.25;35.10;;;;;;;4.87;70.24;100748.99;124217;1105;104181;-71
2021/03/01 18:55:16;;;;;;;64.37;35.10;;;;;;;4.85;70.13;100750.80;124171;1105;104162;-66
2021/03/01 18:57:45;;;;;;;63.13;32.03;;;;;;;4.84;70.17;100743.78;124219;1105;104217;-68
2021/03/01 19:00:15;;;;;;;63.47;34.33;;;;;;;4.81;70.20;100749.13;123999;1105;104624;-67
2021/03/01 19:02:42;;;;;;;65.20;36.93;;;;;;;4.82;70.32;100742.95;124250;1105;104214;-67
2021/03/01 19:05:11;;;;;;;59.07;32.40;;;;;;;4.78;70.09;100736.89;123990;1105;104162;-69
2021/03/01 19:07:39;;;;;;;64.33;34.90;;;;;;;4.75;70.00;100744.86;124204;1105;104223;-68
2021/03/01 19:10:08;;;;;;;67.80;37.03;;;;;;;4.76;70.10;100751.87;124220;1105;104165;-66
2021/03/01 19:12:35;;;;;;;69.27;36.20;;;;;;;4.77;69.98;100757.09;123972;1105;104191;-67
2021/03/01 19:15:06;;;;;;;69.67;35.83;;;;;;;4.79;70.17;100750.92;124210;1105;104278;-67
2021/03/01 19:17:37;;;;;;;78.40;43.03;;;;;;;4.81;70.25;100749.13;124153;1105;104648;-67
2021/03/01 19:20:06;;;;;;;78.43;42.03;;;;;;;4.86;70.27;100753.41;124205;1105;104188;-66
2021/03/01 19:22:35;;;;;;;72.07;39.80;;;;;;;4.88;70.20;100748.98;124283;1105;104174;-66
2021/03/01 19:25:06;;;;;;;74.17;40.10;;;;;;;4.90;70.10;100748.92;124299;1105;104360;-67
2021/03/01 19:27:34;;;;;;;80.87;43.77;;;;;;;4.88;70.15;100745.45;124287;1105;104261;-67
2021/03/01 19:30:07;;;;;;;83.27;44.87;;;;;;;4.89;70.28;100753.31;124261;1105;104251;-66
2021/03/01 19:32:34;;;;;;;79.50;43.07;;;;;;;4.86;70.10;100761.33;124299;1106;104184;-67
2021/03/01 19:35:03;;;;;;;83.00;43.07;;;;;;;4.84;70.08;100754.33;124287;1105;104277;-69
2021/03/01 19:37:30;;;;;;;79.83;43.23;;;;;;;4.84;70.22;100743.78;124268;1105;104187;-68
2021/03/01 19:39:57;;;;;;;73.75;41.02;;;;;;;4.83;70.05;100744.69;124182;1105;104331;-66
2021/03/01 19:42:24;;;;;;;79.17;42.80;;;;;;;4.77;70.13;100741.27;124216;1105;104306;-68
2021/03/01 19:44:51;;;;;;;80.53;43.90;;;;;;;4.76;70.01;100739.54;124224;1105;104262;-68
2021/03/01 19:47:19;;;;;;;76.30;42.13;;;;;;;4.76;69.96;100739.54;124251;1106;104220;-68
2021/03/01 19:49:46;;;;;;;75.70;40.37;;;;;;;4.75;70.29;100742.23;124268;1105;104184;-68
2021/03/01 19:52:13;;;;;;;71.10;40.13;;;;;;;4.76;70.16;100749.23;124302;1104;104609;-68
2021/03/01 19:54:41;;;;;;;80.15;39.63;;;;;;;4.76;69.99;100747.45;124292;1105;104214;-68
2021/03/01 19:57:09;;;;;;;80.70;42.63;;;;;;;4.71;70.04;100749.31;124199;1105;104185;-69
2021/03/01 19:59:36;;;;;;;72.30;39.50;;;;;;;4.73;70.19;100746.66;124217;1105;104194;-68
2021/03/01 20:02:03;;;;;;;77.87;42.37;;;;;;;4.74;70.03;100748.40;124181;1105;104345;-68
2021/03/01 20:04:31;;;;;;;77.40;42.27;;;;;;;4.74;70.08;100745.77;124169;1105;104242;-67
2021/03/01 20:06:58;;;;;;;78.13;42.37;;;;;;;4.75;69.84;100748.35;124216;1105;104702;-68
2021/03/01 20:09:34;;;;;;;83.93;44.20;;;;;;;4.77;70.16;100758.87;124001;1105;104211;-69
2021/03/01 20:12:04;;;;;;;82.17;45.80;;;;;;;4.76;70.37;100752.72;124128;1105;104281;-67
2021/03/01 20:14:32;;;;;;;89.43;46.50;;;;;;;4.74;70.41;100751.03;126017;1105;103687;-69
2021/03/01 20:16:59;;;;;;;86.97;44.53;;;;;;;4.71;70.16;100749.31;124256;1105;105008;-71
2021/03/01 20:19:28;;;;;;;90.67;43.97;;;;;;;4.71;69.97;100746.67;124137;1105;104675;-69
2021/03/01 20:21:56;;;;;;;76.10;41.17;;;;;;;4.69;70.12;100747.62;124108;1106;104616;-69
2021/03/01 20:24:24;;;;;;;77.63;43.27;;;;;;;4.65;70.31;100743.31;124074;1105;104163;-69